Terminal Aerodrome Forecast
Issued by NWS

Home | Current Version | Previous Version | Text Only | Print | Product List | Glossary On
Versions: 1 2 3 4 5 6 7 8 9 10 11 12 13 14 15 16 17 18 19 20
975
FTUS43 KPAH 182320
TAFCGI
TAF
KCGI 182320Z 1900/1924 15008KT P6SM SCT050 BKN070
     FM190600 18012KT P6SM VCSH SCT025 OVC050
     FM190800 18012KT 4SM -SHRA BR SCT009 OVC025
      TEMPO 1908/1910 2SM SHRA BR OVC009
     FM191300 19014G24KT P6SM BKN015
     FM191600 20017G29KT P6SM BKN030=

USA.gov is the U.S. government's official web portal to all federal, state and local government web resources and services.